RUNWAY INFORMATION
Runway Length Width Elevation Displaced
Threshold
Heading | Runway Length Width Elevation Displaced
Threshold
Heading
17L 12205 ft 148 ft 633 ft 0 ft 164 | 35R 12205 ft 148 ft 656 ft 0 ft 344
17R 12205 ft 148 ft 636 ft 0 ft 164 | 35L 12205 ft 148 ft 656 ft 0 ft 344

 AIRPORT FREQUENCIES
Type APP Name APP Frequency 121.3 MHZ
Type ATIS Name ATIS Frequency 126.4 MHZ
Type TWR Name TWR Frequency 118.5 MHZ

 AIRPORT NEAR NAVIGATION AIDS
Type VOR-DME Name Casablanca Frequency 114000 KHZ

 METAR AND TAF INFORMATION
METAR FOR GMMN
ADDS - METARS form results

(1018 UTC 29 June 2022)
Data provider http://aviationweather.gov/metar/data/
 
METAR text: GMMN 291000Z 35006KT 290V030 9999 FEW020 24/15 Q1017 NOSIG
Conditions at: GMMN (NOUASSEUR/CASABL, MA) observed 1000 UTC 29 June 2022
Temperature: 24.0°C (75°F)
Dewpoint: 15.0°C (59°F) [RH = 57%]
Pressure (altimeter): 30.03 inches Hg (1017.0 mb)
Winds: from the N (350 degrees) at 7 MPH (6 knots; 3.1 m/s)
Visibility: 6 or more miles (10+ km)
Ceiling: at least 12,000 feet AGL
Clouds: few clouds at 2000 feet AGL
Weather: no significant weather observed at this time

METAR text: GMMN 290930Z 33007KT 300V010 9999 FEW020 23/14 Q1017 NOSIG
Conditions at: GMMN (NOUASSEUR/CASABL, MA) observed 0930 UTC 29 June 2022
Temperature: 23.0°C (73°F)
Dewpoint: 14.0°C (57°F) [RH = 57%]
Pressure (altimeter): 30.03 inches Hg (1017.0 mb)
Winds: from the NNW (330 degrees) at 8 MPH (7 knots; 3.6 m/s)
Visibility: 6 or more miles (10+ km)
Ceiling: at least 12,000 feet AGL
Clouds: few clouds at 2000 feet AGL
Weather: no significant weather observed at this time

Forecast for: COR
Text: TAF COR GMMN 290500Z 2906/3012 25003KT CAVOK
Forecast period: 0600 to 1000 UTC 29 June 2022
Forecast type: FROM: standard forecast or significant change
Winds: from the WSW (250 degrees) at 3 MPH (3 knots; 1.5 m/s)
Visibility: 6 or more miles (10+ km)
Ceiling: unknown
Clouds: missing
Weather: NSW  (no significant weather)
Text: BECMG 2910/2913 34014KT 9999 SCT020
Forecast period: 1000 to 2100 UTC 29 June 2022
Forecast type: BECOMING: Conditions expected to become as follows by 1300 UTC 29 June 2022
Winds: from the NNW (340 degrees) at 16 MPH (14 knots; 7.2 m/s)
Visibility: 6 or more miles (10+ km)
Ceiling: at least 12,000 feet AGL
Clouds: scattered clouds at 2000 feet AGL
Weather: NSW  (no significant weather)
Text: BECMG 2921/2924 36004KT BKN020 SCT100
Forecast period: 2100 UTC 29 June 2022 to 1200 UTC 30 June 2022
Forecast type: BECOMING: Conditions expected to become as follows by 0000 UTC 30 June 2022
Winds: from the N (360 degrees) at 5 MPH (4 knots; 2.1 m/s)
Visibility: 6 or more miles (10+ km)
Ceiling: 2000 feet AGL
Clouds: broken clouds at 2000 feet AGL
scattered clouds at 10000 feet AGL
Weather: NSW  (no significant weather)



© 2013 - 2022, FlightSimLog.org - Powered by Virtual Airlines Manager